MV Nord Discovery — 3EGP — position and weather

sailwx.info

Track history (hours):
 
Tides and Currents Weather Stations Pressure Air Temp Water Temp Dewpoint Dewpoint Depression Visibility Wind Speed Wind Dir Waves Ship Positions

MV Nord Discovery

Last reported at 2016-Jun-26 10:17 UTC. Time now 2016-Jun-26 11:56 UTC.
Position N 38°31' E 121°10'.

Length 183 m; draft 6.8 m.

Type: Cargo ship. MMSI: 354855000.

Date/timePositionNaut miles runAvg speedWind from/ knotsBaromVisibWave heightAir tempDewpointWater temp
2016-Jun-26 10:17N 38°31' E 121°10'1013.4
2016-Jun-26 09:33N 38°27' E 121°21'1313.1
2016-Jun-26 08:33N 38°22' E 121°37'11212.5
2016-Jun-25 23:33N 37°01' E 123°16'1513.2
2016-Jun-25 22:23N 36°46' E 123°16'14012.6
2016-Jun-25 11:16N 34°25' E 123°16'21011.2
2016-Jun-24 16:33N 31°04' E 122°04'9 8.7
2016-Jun-24 15:33N 31°08' E 121°55'2512.5
2016-Jun-24 13:33N 31°24' E 121°33'1010.3
2016-Jun-24 12:33N 31°31' E 121°24'1211.8
2016-Jun-24 11:33N 31°39' E 121°14'1312.7
2016-Jun-24 10:33N 31°46' E 121°02'1211.5
2016-Jun-24 09:32N 31°55' E 120°53'14 0.4
2016-Jun-23 01:18N 31°59' E 120°37'0 0.0
2016-Jun-23 00:30N 31°59' E 120°37'  
2016-Jun-20 07:23N 31°60' E 120°37'6 7.1
2016-Jun-20 06:29N 32°00' E 120°45'0 0.0
2016-Jun-20 05:24N 32°00' E 120°45'0 0.1
2016-Jun-20 04:26N 32°00' E 120°45'0 0.0
2016-Jun-20 03:21N 32°00' E 120°45'0 0.0
2016-Jun-20 02:24N 32°00' E 120°45'0 0.0
2016-Jun-20 01:25N 32°00' E 120°45'0 0.0
2016-Jun-20 00:30N 32°00' E 120°45'0 0.0
2016-Jun-19 23:24N 32°00' E 120°45'0 0.3
2016-Jun-19 22:30N 32°00' E 120°45'10 9.3
2016-Jun-19 21:23N 31°53' E 120°53'2611.8
2016-Jun-19 19:09N 31°36' E 121°17'812.3
2016-Jun-19 18:31N 31°31' E 121°24'9 9.7
2016-Jun-19 17:34N 31°25' E 121°32'10 9.8
2016-Jun-19 16:31N 31°19' E 121°42'69 1.4
2016-Jun-17 14:25N 30°49' E 122°55'  
Track history (hours):
 
Tides and Currents Weather Stations Pressure Air Temp Water Temp Dewpoint Dewpoint Depression Visibility Wind Speed Wind Dir Waves Ship Positions

MV Nord Discovery

Last reported at 2016-Jun-26 10:17 UTC. Time now 2016-Jun-26 11:56 UTC.
Position N 38°31' E 121°10'.

Length 183 m; draft 6.8 m.

Type: Cargo ship. MMSI: 354855000.

Date/timePositionNaut miles runAvg speedWind from/ knotsBaromVisibWave heightAir tempDewpointWater temp
2016-Jun-26 10:17N 38°31' E 121°10'1013.4
2016-Jun-26 09:33N 38°27' E 121°21'1313.1
2016-Jun-26 08:33N 38°22' E 121°37'11212.5
2016-Jun-25 23:33N 37°01' E 123°16'1513.2
2016-Jun-25 22:23N 36°46' E 123°16'14012.6
2016-Jun-25 11:16N 34°25' E 123°16'21011.2
2016-Jun-24 16:33N 31°04' E 122°04'9 8.7
2016-Jun-24 15:33N 31°08' E 121°55'2512.5
2016-Jun-24 13:33N 31°24' E 121°33'1010.3
2016-Jun-24 12:33N 31°31' E 121°24'1211.8
2016-Jun-24 11:33N 31°39' E 121°14'1312.7
2016-Jun-24 10:33N 31°46' E 121°02'1211.5
2016-Jun-24 09:32N 31°55' E 120°53'14 0.4
2016-Jun-23 01:18N 31°59' E 120°37'0 0.0
2016-Jun-23 00:30N 31°59' E 120°37'  
2016-Jun-20 07:23N 31°60' E 120°37'6 7.1
2016-Jun-20 06:29N 32°00' E 120°45'0 0.0
2016-Jun-20 05:24N 32°00' E 120°45'0 0.1
2016-Jun-20 04:26N 32°00' E 120°45'0 0.0
2016-Jun-20 03:21N 32°00' E 120°45'0 0.0
2016-Jun-20 02:24N 32°00' E 120°45'0 0.0
2016-Jun-20 01:25N 32°00' E 120°45'0 0.0
2016-Jun-20 00:30N 32°00' E 120°45'0 0.0
2016-Jun-19 23:24N 32°00' E 120°45'0 0.3
2016-Jun-19 22:30N 32°00' E 120°45'10 9.3
2016-Jun-19 21:23N 31°53' E 120°53'2611.8
2016-Jun-19 19:09N 31°36' E 121°17'812.3
2016-Jun-19 18:31N 31°31' E 121°24'9 9.7
2016-Jun-19 17:34N 31°25' E 121°32'10 9.8
2016-Jun-19 16:31N 31°19' E 121°42'69 1.4
2016-Jun-17 14:25N 30°49' E 122°55'  

Dump ship's entire track history